Time;durP1;ratioP1;P1;durP2;ratioP2;P2;SDS_P1;SDS_P2;PMS_P1;PMS_P2;Temp;Humidity;BMP_temperature;BMP_pressure;BME280_temperature;BME280_humidity;BME280_pressure;Samples;Min_cycle;Max_cycle;Signal;HPM_P1;HPM_P2
2024/01/17 00:02:03;;;;;;;11.80;7.47;;;-2.80;1.00;;;;;;8166022;28;20215;-66
2024/01/17 00:06:04;;;;;;;19.33;8.00;;;-2.70;1.00;;;;;;8201210;28;20189;-67
2024/01/17 00:10:06;;;;;;;16.07;8.17;;;-2.70;99.90;;;;;;8168101;28;20329;-66
2024/01/17 00:14:07;;;;;;;14.00;8.53;;;-2.60;99.90;;;;;;8199551;28;20595;-66
2024/01/17 00:18:07;;;;;;;14.07;8.33;;;-2.50;99.90;;;;;;8175523;28;20219;-67
2024/01/17 00:22:08;;;;;;;12.93;7.07;;;-2.50;99.90;;;;;;8169851;28;20196;-67
2024/01/17 00:26:09;;;;;;;15.07;7.87;;;-2.40;99.90;;;;;;8166597;28;20194;-67
2024/01/17 00:30:10;;;;;;;14.03;7.43;;;-2.40;99.90;;;;;;8168484;28;20575;-66
2024/01/17 00:34:10;;;;;;;14.20;8.03;;;-2.40;99.90;;;;;;8169807;28;20196;-66
2024/01/17 00:38:11;;;;;;;13.80;7.20;;;-2.30;99.90;;;;;;8167676;28;20219;-65
2024/01/17 00:42:12;;;;;;;15.70;7.77;;;-2.30;99.90;;;;;;8164997;28;20611;-66
2024/01/17 00:46:13;;;;;;;13.80;6.53;;;-2.30;99.90;;;;;;8171514;28;20188;-65
2024/01/17 00:50:14;;;;;;;11.93;7.23;;;-2.30;99.90;;;;;;8186319;28;20247;-66
2024/01/17 00:54:15;;;;;;;12.03;6.80;;;-2.30;99.90;;;;;;8200901;28;20272;-66
2024/01/17 00:58:18;;;;;;;11.00;6.83;;;-2.30;99.90;;;;;;8177515;28;20238;-66
2024/01/17 01:02:19;;;;;;;15.70;7.80;;;-2.30;99.90;;;;;;8170324;28;20248;-67
2024/01/17 01:06:19;;;;;;;23.17;11.87;;;-2.30;99.90;;;;;;8161381;28;20180;-66
2024/01/17 01:10:20;;;;;;;22.20;11.77;;;-2.40;99.90;;;;;;8165040;28;20208;-66
2024/01/17 01:14:24;;;;;;;17.57;9.60;;;-2.50;99.90;;;;;;8181918;28;20189;-66
2024/01/17 01:18:25;;;;;;;14.83;8.77;;;-2.70;99.90;;;;;;8199451;28;20247;-66
2024/01/17 01:22:25;;;;;;;14.27;7.80;;;-2.80;99.90;;;;;;8169064;28;20275;-66
2024/01/17 01:26:26;;;;;;;12.93;7.47;;;-2.90;99.90;;;;;;8163789;28;20191;-66
2024/01/17 01:30:31;;;;;;;12.93;7.40;;;-3.10;99.90;;;;;;8197041;28;20187;-66
2024/01/17 01:34:32;;;;;;;12.13;7.17;;;-3.30;99.90;;;;;;8197479;28;20201;-66
2024/01/17 01:38:32;;;;;;;14.57;7.43;;;-3.50;99.90;;;;;;8177485;28;20584;-66
2024/01/17 01:42:34;;;;;;;11.90;6.47;;;-3.60;99.90;;;;;;8166230;28;20185;-66
2024/01/17 01:46:35;;;;;;;11.17;6.33;;;-3.80;99.90;;;;;;8165466;28;20192;-66
2024/01/17 01:50:36;;;;;;;11.80;6.77;;;-3.90;99.90;;;;;;8164098;28;20255;-65
2024/01/17 01:54:38;;;;;;;9.53;6.13;;;-4.10;99.90;;;;;;8180494;28;20196;-65
2024/01/17 01:58:43;;;;;;;11.17;5.90;;;-4.30;99.90;;;;;;8161520;28;20299;-64
2024/01/17 02:02:45;;;;;;;10.47;6.10;;;-4.50;99.90;;;;;;8180014;28;20198;-66
2024/01/17 02:06:46;;;;;;;8.80;5.67;;;-4.60;99.90;;;;;;8179938;28;20217;-65
2024/01/17 02:10:47;;;;;;;12.80;6.43;;;-4.70;99.90;;;;;;8179678;28;20217;-64
2024/01/17 02:14:48;;;;;;;8.87;5.73;;;-4.70;99.90;;;;;;8195712;28;20193;-62
2024/01/17 02:18:49;;;;;;;11.03;6.17;;;-4.60;99.90;;;;;;8212992;28;20213;-62
2024/01/17 02:22:49;;;;;;;10.30;5.90;;;-4.60;99.90;;;;;;8187443;28;20197;-63
2024/01/17 02:26:51;;;;;;;8.33;5.20;;;-4.60;99.90;;;;;;8209557;28;20236;-64
2024/01/17 02:30:52;;;;;;;10.10;5.57;;;-4.60;99.90;;;;;;8209142;28;20201;-63
2024/01/17 02:34:53;;;;;;;9.63;5.47;;;-4.80;99.90;;;;;;8190764;28;20574;-63
2024/01/17 02:38:54;;;;;;;30.60;12.80;;;-5.00;99.90;;;;;;8193388;28;20201;-65
2024/01/17 02:42:55;;;;;;;37.80;16.50;;;-5.10;99.90;;;;;;8203290;28;20212;-63
2024/01/17 02:46:56;;;;;;;34.30;18.83;;;-5.20;99.90;;;;;;8187995;28;20181;-64
2024/01/17 02:50:57;;;;;;;38.27;21.53;;;-5.30;99.90;;;;;;8197867;28;20669;-63
2024/01/17 02:54:57;;;;;;;37.57;20.30;;;-5.40;99.90;;;;;;8192272;28;20209;-63
2024/01/17 02:58:58;;;;;;;29.17;14.83;;;-5.50;99.90;;;;;;8197666;28;20208;-65
2024/01/17 03:03:01;;;;;;;24.60;12.30;;;-5.60;99.90;;;;;;8194521;28;20280;-64
2024/01/17 03:07:02;;;;;;;17.80;8.87;;;-5.80;99.90;;;;;;8209319;28;20228;-63
2024/01/17 03:11:03;;;;;;;14.40;8.13;;;-6.00;99.90;;;;;;8182426;28;20306;-64
2024/01/17 03:15:05;;;;;;;25.10;11.77;;;-6.10;99.90;;;;;;8187032;28;20194;-64
2024/01/17 03:19:07;;;;;;;22.93;11.70;;;-6.20;99.90;;;;;;8198925;28;20212;-65
2024/01/17 03:23:08;;;;;;;19.37;10.77;;;-6.20;1.00;;;;;;8172778;28;20200;-66
2024/01/17 03:27:09;;;;;;;15.90;8.27;;;-6.30;1.00;;;;;;8166643;28;20481;-66
2024/01/17 03:31:09;;;;;;;15.20;7.43;;;-6.30;1.00;;;;;;8166647;28;20185;-66
2024/01/17 03:35:10;;;;;;;14.97;7.03;;;-6.30;1.00;;;;;;8167321;28;20264;-66
2024/01/17 03:39:12;;;;;;;13.30;6.80;;;-6.40;1.00;;;;;;8182067;28;20508;-66
2024/01/17 03:43:13;;;;;;;12.80;6.33;;;-6.50;1.00;;;;;;8214107;28;20197;-63
2024/01/17 03:47:13;;;;;;;12.97;7.33;;;-6.60;1.00;;;;;;8189508;28;20195;-64
2024/01/17 03:51:14;;;;;;;14.00;6.77;;;-6.80;99.90;;;;;;8193520;28;21586;-67
2024/01/17 03:55:15;;;;;;;13.43;6.87;;;-7.00;99.90;;;;;;8168056;28;20190;-67
2024/01/17 03:59:16;;;;;;;12.53;6.43;;;-7.10;99.90;;;;;;8158591;28;20222;-67
2024/01/17 04:03:17;;;;;;;9.87;5.73;;;-7.30;1.00;;;;;;8171016;28;20222;-67
2024/01/17 04:07:20;;;;;;;12.20;6.33;;;-7.40;99.90;;;;;;8170606;28;20245;-67
2024/01/17 04:11:21;;;;;;;12.40;6.80;;;-7.40;1.00;;;;;;8181656;28;20196;-67
2024/01/17 04:15:22;;;;;;;18.43;7.83;;;-7.40;1.00;;;;;;8200143;28;20290;-67
2024/01/17 04:19:22;;;;;;;16.07;7.73;;;-7.40;1.00;;;;;;8169728;28;20227;-67
2024/01/17 04:23:23;;;;;;;16.23;8.90;;;-7.50;1.00;;;;;;8174014;28;20192;-67
2024/01/17 04:27:24;;;;;;;39.27;14.30;;;-7.60;1.00;;;;;;8186855;28;20192;-67
2024/01/17 04:31:27;;;;;;;34.80;12.93;;;-7.70;1.00;;;;;;8171923;28;20195;-67
2024/01/17 04:35:27;;;;;;;27.00;10.90;;;-7.70;1.00;;;;;;8169252;28;20222;-67
2024/01/17 04:39:28;;;;;;;41.03;13.73;;;-7.80;1.00;;;;;;8184138;28;20216;-67
2024/01/17 04:43:29;;;;;;;40.13;13.77;;;-7.80;1.00;;;;;;8169769;28;20250;-67
2024/01/17 04:47:30;;;;;;;26.53;10.20;;;-7.80;1.00;;;;;;8179395;28;20348;-67
2024/01/17 04:51:30;;;;;;;19.23;8.90;;;-7.80;1.00;;;;;;8200477;28;20195;-67
2024/01/17 04:55:31;;;;;;;15.93;8.20;;;-7.90;99.90;;;;;;8166154;28;20277;-68
2024/01/17 04:59:32;;;;;;;52.17;16.73;;;-7.90;1.00;;;;;;8197869;28;20473;-67
2024/01/17 05:03:33;;;;;;;45.10;19.80;;;-7.80;1.00;;;;;;8164468;28;20421;-68
2024/01/17 05:07:34;;;;;;;66.63;29.53;;;-7.60;1.00;;;;;;8168671;28;20585;-67
2024/01/17 05:11:35;;;;;;;148.10;45.03;;;-7.60;1.00;;;;;;8164729;28;20257;-67
2024/01/17 05:15:36;;;;;;;175.90;52.93;;;-7.60;1.00;;;;;;8180620;28;20424;-68
2024/01/17 05:19:38;;;;;;;120.73;39.33;;;-7.80;1.00;;;;;;8197972;28;20217;-67
2024/01/17 05:23:39;;;;;;;66.53;24.83;;;-8.00;1.00;;;;;;8162978;28;20486;-68
2024/01/17 05:27:40;;;;;;;65.13;23.43;;;-8.10;99.90;;;;;;8170313;28;20188;-67
2024/01/17 05:31:41;;;;;;;35.13;14.20;;;-8.30;99.90;;;;;;8157210;28;20212;-67
2024/01/17 05:35:42;;;;;;;22.23;10.93;;;-8.40;99.90;;;;;;8182421;28;20185;-67
2024/01/17 05:39:43;;;;;;;16.80;8.63;;;-8.50;99.90;;;;;;8166089;28;20213;-67
2024/01/17 05:43:43;;;;;;;17.70;8.13;;;-8.70;99.90;;;;;;8167164;28;20233;-68
2024/01/17 05:47:44;;;;;;;16.53;8.70;;;-9.00;99.90;;;;;;8194176;28;20189;-67
2024/01/17 05:51:45;;;;;;;18.37;8.90;;;-9.00;99.90;;;;;;8200557;28;20193;-67
2024/01/17 05:55:46;;;;;;;19.97;10.67;;;-8.90;1.00;;;;;;8181083;28;20188;-68
2024/01/17 05:59:47;;;;;;;37.90;14.40;;;-8.70;1.00;;;;;;8168579;28;20213;-67
2024/01/17 06:03:47;;;;;;;36.43;15.33;;;-8.70;1.00;;;;;;8165609;28;20197;-67
2024/01/17 06:07:48;;;;;;;39.13;16.90;;;-8.80;1.00;;;;;;8164407;28;20185;-66
2024/01/17 06:11:49;;;;;;;39.80;18.77;;;-8.50;1.00;;;;;;8161012;28;20207;-66
2024/01/17 06:15:50;;;;;;;47.83;19.13;;;-8.40;38.90;;;;;;8196046;28;20195;-66
2024/01/17 06:19:51;;;;;;;38.50;17.47;;;-8.40;41.40;;;;;;8166634;28;20216;-66
2024/01/17 06:23:52;;;;;;;28.93;13.97;;;-8.50;1.00;;;;;;8179944;28;20252;-67
2024/01/17 06:27:52;;;;;;;23.83;13.10;;;-8.60;1.00;;;;;;8173674;28;20199;-65
2024/01/17 06:31:53;;;;;;;29.73;15.43;;;-8.80;1.00;;;;;;8171815;28;20189;-66
2024/01/17 06:35:57;;;;;;;30.43;15.63;;;-8.70;1.00;;;;;;8176853;28;20189;-66
2024/01/17 06:39:58;;;;;;;25.47;11.13;;;-8.70;7.90;;;;;;8174003;28;20208;-66
2024/01/17 06:43:59;;;;;;;47.53;25.63;;;-8.60;99.90;;;;;;8181205;28;20192;-64
2024/01/17 06:48:02;;;;;;;73.27;34.23;;;-8.60;99.90;;;;;;8200293;28;20535;-66
2024/01/17 06:52:02;;;;;;;38.50;20.07;;;-8.50;99.90;;;;;;8173572;28;20280;-66
2024/01/17 06:56:03;;;;;;;40.83;18.67;;;-8.50;99.90;;;;;;8177423;28;20533;-66
2024/01/17 07:00:06;;;;;;;51.63;23.40;;;-8.40;99.90;;;;;;8178453;28;20220;-66
2024/01/17 07:04:07;;;;;;;47.73;21.20;;;-8.40;99.90;;;;;;8193999;28;20185;-65
2024/01/17 07:08:08;;;;;;;98.33;44.03;;;-8.50;1.00;;;;;;8188830;28;20538;-65
2024/01/17 07:12:09;;;;;;;91.13;38.97;;;-8.40;33.80;;;;;;8210371;28;20204;-65
2024/01/17 07:16:15;;;;;;;67.37;30.67;;;-8.40;99.90;;;;;;8209603;28;20275;-65
2024/01/17 07:20:16;;;;;;;67.77;32.20;;;-8.30;99.90;;;;;;8207178;28;20223;-65
2024/01/17 07:24:17;;;;;;;72.33;33.63;;;-8.20;99.90;;;;;;8178508;28;20189;-65
2024/01/17 07:28:19;;;;;;;66.63;29.43;;;-8.20;99.90;;;;;;8153182;28;20563;-66
2024/01/17 07:32:20;;;;;;;49.93;22.20;;;-8.20;86.00;;;;;;8165614;28;20193;-66
2024/01/17 07:36:21;;;;;;;49.43;22.93;;;-8.20;14.30;;;;;;8193880;28;20190;-66
2024/01/17 07:40:22;;;;;;;61.73;29.73;;;-8.10;26.80;;;;;;8172301;28;20214;-66
2024/01/17 07:44:29;;;;;;;56.73;27.50;;;-8.10;1.00;;;;;;8167737;28;20252;-67
2024/01/17 07:48:29;;;;;;;60.17;31.83;;;-8.00;13.40;;;;;;8184575;28;20177;-67
2024/01/17 07:52:30;;;;;;;70.43;29.90;;;-7.80;1.00;;;;;;8180123;28;20277;-67
2024/01/17 07:56:31;;;;;;;70.17;28.10;;;-7.50;1.00;;;;;;8168264;28;20190;-66
2024/01/17 08:00:32;;;;;;;71.40;28.50;;;-7.40;1.00;;;;;;8199907;28;20229;-66
2024/01/17 08:04:33;;;;;;;190.63;69.53;;;-7.20;1.00;;;;;;8186537;28;20200;-66
2024/01/17 08:08:34;;;;;;;134.27;52.17;;;-7.00;1.00;;;;;;8181190;28;20227;-66
2024/01/17 08:12:34;;;;;;;118.00;48.13;;;-6.80;1.00;;;;;;8187405;28;20209;-66
2024/01/17 08:16:35;;;;;;;102.70;40.33;;;-6.70;1.00;;;;;;8174112;28;20282;-66
2024/01/17 08:20:36;;;;;;;90.47;33.00;;;-6.60;1.00;;;;;;8169467;28;20251;-66
2024/01/17 08:24:37;;;;;;;52.40;23.77;;;-6.40;1.00;;;;;;8198251;28;20233;-67
2024/01/17 08:28:37;;;;;;;68.23;30.00;;;-6.20;1.00;;;;;;8167264;28;20192;-66
2024/01/17 08:32:39;;;;;;;49.47;23.70;;;-6.00;1.00;;;;;;8169326;28;20189;-65
2024/01/17 08:36:40;;;;;;;48.57;24.53;;;-5.80;99.90;;;;;;8160583;28;20232;-65
2024/01/17 08:40:41;;;;;;;58.20;29.40;;;-5.40;99.90;;;;;;8168945;28;20216;-67
2024/01/17 08:44:45;;;;;;;72.43;35.47;;;-5.00;1.00;;;;;;8163837;28;20193;-65
2024/01/17 08:48:46;;;;;;;42.17;21.87;;;-4.60;1.00;;;;;;8180130;28;20189;-64
2024/01/17 08:52:48;;;;;;;40.13;22.90;;;-4.30;1.00;;;;;;8183369;28;20288;-66
2024/01/17 08:56:48;;;;;;;99.37;43.80;;;-4.00;99.90;;;;;;8172705;28;20189;-66
2024/01/17 09:00:49;;;;;;;103.10;43.87;;;-3.80;99.90;;;;;;8160664;28;20221;-66
2024/01/17 09:04:50;;;;;;;79.27;37.33;;;-3.60;99.90;;;;;;8191605;28;20256;-66
2024/01/17 09:08:51;;;;;;;77.87;35.83;;;-3.30;99.90;;;;;;8160033;28;20328;-65
2024/01/17 09:12:51;;;;;;;48.73;27.23;;;-2.90;99.90;;;;;;8198792;28;20345;-67
2024/01/17 09:16:55;;;;;;;70.50;32.90;;;-2.50;99.90;;;;;;8165831;28;20814;-65
2024/01/17 09:20:56;;;;;;;50.07;26.30;;;-1.90;99.90;;;;;;8199050;28;20218;-66
2024/01/17 09:24:59;;;;;;;33.70;19.93;;;-1.50;99.90;;;;;;8182115;28;20193;-64
2024/01/17 09:29:00;;;;;;;33.03;18.87;;;-1.40;1.00;;;;;;8170648;28;20185;-64
2024/01/17 09:33:01;;;;;;;37.20;22.03;;;-1.30;1.00;;;;;;8199638;28;20199;-66
2024/01/17 09:37:05;;;;;;;34.37;20.97;;;-1.30;1.00;;;;;;8186122;28;20185;-66
2024/01/17 09:41:06;;;;;;;37.93;22.63;;;-1.20;1.00;;;;;;8204030;28;20213;-65
2024/01/17 09:45:09;;;;;;;38.77;22.07;;;-1.20;1.00;;;;;;8179256;28;20209;-63
2024/01/17 09:49:11;;;;;;;39.77;21.47;;;-1.10;1.00;;;;;;8213581;28;20192;-63
2024/01/17 09:53:13;;;;;;;29.97;15.40;;;-0.90;1.00;;;;;;8201753;28;20194;-66
2024/01/17 09:57:22;;;;;;;32.07;17.97;;;-1.00;1.00;;;;;;8179287;28;20193;-67
2024/01/17 10:01:25;;;;;;;28.23;16.10;;;-1.00;1.00;;;;;;8195641;28;20304;-66
2024/01/17 10:05:30;;;;;;;28.17;16.77;;;-0.90;1.00;;;;;;8172339;28;20192;-67
2024/01/17 10:09:31;;;;;;;29.73;17.70;;;-0.90;1.00;;;;;;8174073;28;20193;-66
2024/01/17 10:13:32;;;;;;;29.37;17.30;;;-0.80;1.00;;;;;;8181778;28;20306;-66
2024/01/17 10:17:35;;;;;;;34.13;19.47;;;-0.60;1.00;;;;;;8174928;28;20193;-66
2024/01/17 10:21:36;;;;;;;35.57;19.83;;;-0.30;1.00;;;;;;8178652;28;20190;-67
2024/01/17 10:25:44;;;;;;;38.67;21.57;;;-0.40;1.00;;;;;;8166976;28;20271;-66
2024/01/17 10:29:45;;;;;;;40.00;22.27;;;-0.20;1.00;;;;;;8161113;28;20398;-67
2024/01/17 10:33:46;;;;;;;49.83;28.63;;;-0.20;1.00;;;;;;8177120;28;20541;-67
2024/01/17 10:37:46;;;;;;;44.37;26.80;;;-0.10;1.00;;;;;;8170167;28;20469;-67
2024/01/17 10:41:54;;;;;;;47.53;24.77;;;-0.20;1.00;;;;;;8166410;28;20194;-65
2024/01/17 10:45:55;;;;;;;48.07;27.73;;;-0.30;1.00;;;;;;8191716;28;20189;-64
2024/01/17 10:49:59;;;;;;;38.67;23.03;;;-0.10;1.00;;;;;;8166189;28;20537;-63
2024/01/17 10:54:00;;;;;;;32.40;18.87;;;0.10;1.00;;;;;;8212263;28;20205;-62
2024/01/17 10:58:10;;;;;;;33.90;19.27;;;0.30;1.00;;;;;;8198337;29;20201;-62
2024/01/17 11:02:21;;;;;;;35.17;19.77;;;0.40;1.00;;;;;;8199366;28;20216;-62
2024/01/17 11:06:25;;;;;;;34.17;18.27;;;0.50;1.00;;;;;;8211254;28;20211;-63
2024/01/17 11:10:29;;;;;;;32.07;19.57;;;0.60;1.00;;;;;;8206550;28;20200;-62
2024/01/17 11:14:31;;;;;;;28.93;18.03;;;0.70;1.00;;;;;;8234816;28;20241;-65
2024/01/17 11:18:36;;;;;;;29.87;16.93;;;0.60;1.00;;;;;;8210347;28;20201;-63
2024/01/17 11:22:39;;;;;;;29.43;16.27;;;0.40;1.00;;;;;;8219919;28;20286;-63
2024/01/17 11:27:10;;;;;;;35.40;19.50;;;0.30;1.00;;;;;;8201599;28;20221;-63
2024/01/17 11:31:56;;;;;;;44.93;24.33;;;0.20;1.00;;;;;;8206032;28;20197;-64
2024/01/17 11:35:57;;;;;;;46.33;24.37;;;0.30;1.00;;;;;;8191065;29;20185;-64
2024/01/17 11:40:00;;;;;;;51.50;27.90;;;0.30;1.00;;;;;;8196644;28;20237;-64
2024/01/17 11:44:01;;;;;;;42.60;23.20;;;0.30;1.00;;;;;;8205469;28;20185;-65
2024/01/17 11:48:34;;;;;;;36.67;20.37;;;0.40;1.00;;;;;;8202253;28;20185;-66
2024/01/17 11:52:37;;;;;;;47.90;30.67;;;0.50;1.00;;;;;;8215861;28;20530;-64
2024/01/17 11:56:38;;;;;;;42.70;24.67;;;0.60;1.00;;;;;;8206986;28;20429;-63
2024/01/17 12:00:39;;;;;;;29.47;19.17;;;0.80;1.00;;;;;;8206270;28;20271;-66
2024/01/17 12:04:44;;;;;;;29.50;16.20;;;0.90;1.00;;;;;;8199748;28;20591;-67
2024/01/17 12:08:44;;;;;;;27.17;17.10;;;1.10;1.00;;;;;;8169272;28;20280;-66
2024/01/17 12:12:46;;;;;;;26.17;15.50;;;1.20;1.00;;;;;;8191425;28;20200;-65
2024/01/17 12:16:49;;;;;;;22.73;14.87;;;1.40;1.00;;;;;;8205546;28;20189;-64
2024/01/17 12:21:01;;;;;;;25.23;14.83;;;1.50;1.00;;;;;;8202055;28;20201;-64
2024/01/17 12:25:02;;;;;;;24.43;15.30;;;1.60;1.00;;;;;;8214339;28;20181;-64
2024/01/17 12:29:10;;;;;;;24.43;13.60;;;1.70;1.00;;;;;;8222268;28;20245;-63
2024/01/17 12:33:18;;;;;;;21.43;13.60;;;1.70;1.00;;;;;;8202883;28;20190;-64
2024/01/17 12:37:19;;;;;;;21.10;13.77;;;1.70;1.00;;;;;;8203111;28;20216;-63
2024/01/17 12:41:20;;;;;;;28.53;15.93;;;1.60;1.00;;;;;;8216711;28;20308;-63
2024/01/17 12:45:22;;;;;;;27.33;17.70;;;1.50;1.00;;;;;;8205449;28;20185;-64
2024/01/17 12:49:22;;;;;;;24.50;16.47;;;1.50;1.00;;;;;;8217304;28;20189;-64
2024/01/17 12:53:27;;;;;;;22.47;14.60;;;1.40;1.00;;;;;;8216664;28;20192;-64
2024/01/17 12:57:28;;;;;;;24.07;14.93;;;1.30;1.00;;;;;;8217680;28;20205;-65
2024/01/17 13:01:30;;;;;;;23.27;13.73;;;1.30;1.00;;;;;;8218045;28;20212;-65
2024/01/17 13:05:31;;;;;;;22.73;15.33;;;1.30;1.00;;;;;;8200049;28;20248;-65
2024/01/17 13:09:33;;;;;;;27.87;16.40;;;1.40;1.00;;;;;;8215759;28;20213;-64
2024/01/17 13:13:34;;;;;;;26.33;14.50;;;1.40;1.00;;;;;;8187754;28;20197;-66
2024/01/17 13:17:35;;;;;;;31.80;18.63;;;1.40;1.00;;;;;;8184561;28;20187;-66
2024/01/17 13:21:37;;;;;;;33.17;19.20;;;1.30;1.00;;;;;;8179832;28;20178;-65
2024/01/17 13:25:37;;;;;;;34.40;19.93;;;1.20;1.00;;;;;;8165654;28;20192;-65
2024/01/17 13:29:38;;;;;;;36.00;20.53;;;1.30;1.00;;;;;;8195478;28;20187;-66
2024/01/17 13:33:41;;;;;;;29.17;18.13;;;1.30;1.00;;;;;;8182551;28;20248;-66
2024/01/17 13:37:43;;;;;;;34.60;18.60;;;1.40;1.00;;;;;;8162748;28;20193;-66
2024/01/17 13:41:44;;;;;;;27.33;17.00;;;1.40;1.00;;;;;;8164505;28;20181;-66
2024/01/17 13:45:44;;;;;;;35.77;18.63;;;1.40;1.00;;;;;;8179320;28;20276;-65
2024/01/17 13:49:47;;;;;;;168.90;62.60;;;1.60;1.00;;;;;;8168135;28;20185;-65
2024/01/17 13:53:53;;;;;;;97.87;40.63;;;1.60;1.00;;;;;;8188525;28;20193;-66
2024/01/17 13:57:53;;;;;;;186.20;65.20;;;1.60;1.00;;;;;;8167556;28;20255;-66
2024/01/17 14:01:56;;;;;;;79.03;33.70;;;1.60;1.00;;;;;;8166592;28;20181;-65
2024/01/17 14:05:57;;;;;;;53.63;30.20;;;1.40;1.00;;;;;;8165034;28;20189;-65
2024/01/17 14:09:58;;;;;;;43.83;26.50;;;1.40;1.00;;;;;;8164154;28;20311;-66
2024/01/17 14:13:58;;;;;;;46.33;29.93;;;1.30;1.00;;;;;;8170630;28;20185;-64
2024/01/17 14:17:59;;;;;;;72.10;36.00;;;1.20;1.00;;;;;;8177003;28;20209;-66
2024/01/17 14:22:00;;;;;;;54.20;30.83;;;1.10;1.00;;;;;;8164821;28;20213;-65
2024/01/17 14:26:03;;;;;;;54.67;29.13;;;0.90;1.00;;;;;;8162255;28;20342;-65
2024/01/17 14:30:04;;;;;;;84.23;45.87;;;0.80;1.00;;;;;;8196882;28;21095;-65
2024/01/17 14:34:09;;;;;;;80.20;38.80;;;0.70;1.00;;;;;;8174888;28;20528;-65
2024/01/17 14:38:12;;;;;;;55.57;28.80;;;0.70;1.00;;;;;;8166082;28;20208;-66
2024/01/17 14:42:16;;;;;;;39.20;23.73;;;0.60;1.00;;;;;;8195012;28;20188;-64
2024/01/17 14:46:16;;;;;;;34.17;20.57;;;0.60;1.00;;;;;;8219257;28;20185;-63
2024/01/17 14:50:17;;;;;;;33.00;19.27;;;0.50;1.00;;;;;;8219986;28;20212;-63
2024/01/17 14:54:19;;;;;;;26.07;16.53;;;0.40;1.00;;;;;;8208543;28;20261;-63
2024/01/17 14:58:19;;;;;;;26.23;16.30;;;0.20;1.00;;;;;;8214288;28;20216;-63
2024/01/17 15:02:21;;;;;;;26.97;17.20;;;0.00;1.00;;;;;;8224180;28;20185;-64
2024/01/17 15:06:23;;;;;;;33.57;18.13;;;-0.20;1.00;;;;;;8201043;28;20181;-64
2024/01/17 15:10:25;;;;;;;33.80;20.13;;;-0.30;1.00;;;;;;8206718;28;20272;-64
2024/01/17 15:14:25;;;;;;;85.53;37.67;;;-0.30;1.00;;;;;;8209251;28;20189;-64
2024/01/17 15:18:26;;;;;;;47.07;27.83;;;-0.40;1.00;;;;;;8204602;28;20220;-62
2024/01/17 15:22:31;;;;;;;56.50;30.30;;;-0.40;1.00;;;;;;8211150;28;20189;-63
2024/01/17 15:26:32;;;;;;;49.50;26.57;;;-0.40;1.00;;;;;;8219273;28;20209;-63
2024/01/17 15:30:33;;;;;;;44.67;24.27;;;-0.50;1.00;;;;;;8222549;28;20278;-63
2024/01/17 15:34:34;;;;;;;39.37;23.63;;;-0.50;1.00;;;;;;8221063;28;20184;-62
2024/01/17 15:38:42;;;;;;;39.60;20.73;;;-0.50;1.00;;;;;;8220743;28;20209;-63
2024/01/17 15:42:42;;;;;;;35.00;20.17;;;-0.60;1.00;;;;;;8212595;28;20241;-63
2024/01/17 15:46:43;;;;;;;29.30;16.60;;;-0.70;1.00;;;;;;8223978;28;20236;-62
2024/01/17 15:50:44;;;;;;;31.37;17.10;;;-0.70;1.00;;;;;;8199511;28;20311;-64
2024/01/17 15:54:45;;;;;;;243.10;85.67;;;-0.70;1.00;;;;;;8167328;28;20196;-65
2024/01/17 15:58:47;;;;;;;180.10;66.63;;;-0.70;1.00;;;;;;8177389;28;20221;-65
2024/01/17 16:02:48;;;;;;;175.27;70.87;;;-0.70;1.00;;;;;;8165379;28;20601;-66
2024/01/17 16:06:48;;;;;;;145.03;63.77;;;-0.70;1.00;;;;;;8183589;28;20360;-66
2024/01/17 16:10:49;;;;;;;101.73;47.30;;;-0.70;1.00;;;;;;8170457;28;20251;-66
2024/01/17 16:14:53;;;;;;;76.10;36.30;;;-0.70;1.00;;;;;;8165727;28;20231;-66
2024/01/17 16:18:54;;;;;;;66.37;33.77;;;-0.70;1.00;;;;;;8168094;28;20667;-66
2024/01/17 16:22:55;;;;;;;46.23;27.00;;;-0.70;1.00;;;;;;8165253;28;20185;-66
2024/01/17 16:26:56;;;;;;;76.13;41.87;;;-0.70;1.00;;;;;;8163485;28;20277;-66
2024/01/17 16:30:57;;;;;;;46.73;25.97;;;-0.70;1.00;;;;;;8173271;28;20207;-66
2024/01/17 16:34:57;;;;;;;37.33;20.10;;;-0.70;1.00;;;;;;8196883;28;20351;-65
2024/01/17 16:38:58;;;;;;;62.50;30.03;;;-0.70;1.00;;;;;;8160097;28;20194;-66
2024/01/17 16:42:59;;;;;;;65.47;31.43;;;-0.70;1.00;;;;;;8169155;28;20182;-65
2024/01/17 16:47:01;;;;;;;50.47;28.10;;;-0.70;1.00;;;;;;8163866;28;20363;-66
2024/01/17 16:51:03;;;;;;;57.83;31.30;;;-0.70;1.00;;;;;;8177778;28;20189;-65
2024/01/17 16:55:04;;;;;;;52.73;29.17;;;-0.70;1.00;;;;;;8164176;28;20209;-66
2024/01/17 16:59:05;;;;;;;69.87;34.07;;;-0.70;1.00;;;;;;8165334;28;20248;-66
2024/01/17 17:03:07;;;;;;;62.30;30.10;;;-0.70;1.00;;;;;;8166442;28;20232;-65
2024/01/17 17:07:08;;;;;;;66.07;35.47;;;-0.70;1.00;;;;;;8176952;28;20244;-65
2024/01/17 17:11:09;;;;;;;56.40;32.23;;;-0.60;1.00;;;;;;8185244;28;20201;-66
2024/01/17 17:15:10;;;;;;;56.13;29.93;;;-0.60;1.00;;;;;;8181694;28;20604;-66
2024/01/17 17:19:11;;;;;;;86.83;40.70;;;-0.50;1.00;;;;;;8163270;28;20295;-67
2024/01/17 17:23:12;;;;;;;73.43;38.53;;;-0.50;1.00;;;;;;8192979;28;20196;-63
2024/01/17 17:27:13;;;;;;;55.83;29.77;;;-0.50;1.00;;;;;;8198446;28;20190;-63
2024/01/17 17:31:18;;;;;;;38.37;20.97;;;-0.40;1.00;;;;;;8218329;28;20193;-65
2024/01/17 17:35:19;;;;;;;39.67;23.37;;;-0.40;13.50;;;;;;8216777;28;20204;-62
2024/01/17 17:39:23;;;;;;;35.17;21.17;;;-0.40;5.80;;;;;;8207064;28;20937;-63
2024/01/17 17:43:24;;;;;;;40.93;23.03;;;-0.30;7.50;;;;;;8194583;28;20276;-65
2024/01/17 17:47:25;;;;;;;38.17;22.17;;;-0.30;10.10;;;;;;8200837;28;20208;-64
2024/01/17 17:51:26;;;;;;;37.03;21.60;;;-0.20;16.10;;;;;;8192703;28;20192;-64
2024/01/17 17:55:27;;;;;;;33.93;20.73;;;-0.20;22.50;;;;;;8188708;28;20196;-65
2024/01/17 17:59:28;;;;;;;28.93;18.60;;;-0.20;53.40;;;;;;8209961;28;20223;-64
2024/01/17 18:03:29;;;;;;;33.43;20.10;;;-0.20;72.40;;;;;;8191674;28;20236;-65
2024/01/17 18:07:30;;;;;;;38.73;22.93;;;-0.20;99.90;;;;;;8224160;28;20325;-65
2024/01/17 18:11:31;;;;;;;43.10;23.10;;;-0.20;99.90;;;;;;8193770;28;20241;-67
2024/01/17 18:15:33;;;;;;;42.13;24.67;;;-0.20;99.90;;;;;;8192790;28;20221;-65
2024/01/17 18:19:34;;;;;;;34.73;21.40;;;-0.10;99.90;;;;;;8199924;28;20201;-65
2024/01/17 18:23:35;;;;;;;34.33;21.57;;;-0.10;99.90;;;;;;8202057;28;20204;-66
2024/01/17 18:27:36;;;;;;;36.63;21.57;;;-0.20;99.90;;;;;;8203366;28;20268;-66
2024/01/17 18:31:37;;;;;;;34.60;21.47;;;-0.10;99.90;;;;;;8198499;28;20236;-65
2024/01/17 18:35:37;;;;;;;38.90;22.53;;;-0.10;99.90;;;;;;8188789;28;20271;-65
2024/01/17 18:39:38;;;;;;;39.80;23.87;;;0.00;99.90;;;;;;8184614;28;20201;-65
2024/01/17 18:43:39;;;;;;;34.30;20.83;;;0.00;99.90;;;;;;8185446;28;20259;-66
2024/01/17 18:47:40;;;;;;;37.57;22.23;;;0.00;99.90;;;;;;8184352;28;20245;-66
2024/01/17 18:51:42;;;;;;;37.30;21.37;;;0.10;99.90;;;;;;8181799;28;20292;-66
2024/01/17 18:55:43;;;;;;;33.60;19.70;;;0.10;99.90;;;;;;8185469;28;20233;-65
2024/01/17 18:59:44;;;;;;;33.30;19.83;;;0.10;99.90;;;;;;8194108;28;20221;-65
2024/01/17 19:03:44;;;;;;;39.87;24.93;;;0.20;99.90;;;;;;8200027;28;20185;-65
2024/01/17 19:07:45;;;;;;;47.83;29.90;;;0.20;99.90;;;;;;8198922;28;20276;-65
2024/01/17 19:11:46;;;;;;;70.50;38.33;;;0.30;99.90;;;;;;8201162;28;20252;-65
2024/01/17 19:15:48;;;;;;;49.30;30.33;;;0.30;99.90;;;;;;8188829;28;20331;-65
2024/01/17 19:19:52;;;;;;;41.17;24.23;;;0.30;99.90;;;;;;8186698;28;20206;-66
2024/01/17 19:23:52;;;;;;;40.77;23.00;;;0.40;99.90;;;;;;8170600;28;20424;-64
2024/01/17 19:27:53;;;;;;;37.40;21.03;;;0.40;99.90;;;;;;8187520;28;20235;-64
2024/01/17 19:31:54;;;;;;;45.60;25.63;;;0.40;99.90;;;;;;8190004;28;20517;-63
2024/01/17 19:35:55;;;;;;;39.73;23.77;;;0.50;99.90;;;;;;8178615;28;20185;-64
2024/01/17 19:39:56;;;;;;;50.80;28.57;;;0.50;99.90;;;;;;8176949;28;20753;-65
2024/01/17 19:44:00;;;;;;;51.33;29.17;;;0.60;99.90;;;;;;8179361;28;20443;-65
2024/01/17 19:48:04;;;;;;;74.37;39.50;;;0.60;99.90;;;;;;8194000;28;20177;-65
2024/01/17 19:52:05;;;;;;;64.97;35.07;;;0.70;99.90;;;;;;8175454;28;20185;-65
2024/01/17 19:56:06;;;;;;;54.57;30.93;;;0.70;99.90;;;;;;8194331;28;20212;-66
2024/01/17 20:00:12;;;;;;;64.73;34.23;;;0.70;99.90;;;;;;8177308;28;20216;-65
2024/01/17 20:04:12;;;;;;;60.27;33.83;;;0.70;99.90;;;;;;8209974;28;20200;-66
2024/01/17 20:08:13;;;;;;;58.10;32.23;;;0.80;99.90;;;;;;8186580;28;20269;-66
2024/01/17 20:12:14;;;;;;;46.40;27.07;;;0.80;99.90;;;;;;8189763;28;20204;-65
2024/01/17 20:16:16;;;;;;;45.77;27.47;;;0.80;99.90;;;;;;8188886;28;20205;-66
2024/01/17 20:20:16;;;;;;;49.47;29.23;;;0.80;99.90;;;;;;8186150;28;20299;-66
2024/01/17 20:24:19;;;;;;;189.30;86.63;;;0.90;99.90;;;;;;8182867;28;20205;-65
2024/01/17 20:28:20;;;;;;;232.70;108.27;;;0.90;99.90;;;;;;8201345;28;20193;-65
2024/01/17 20:32:21;;;;;;;193.30;92.30;;;0.80;1.00;;;;;;8175728;28;20448;-62
2024/01/17 20:36:21;;;;;;;162.90;77.73;;;0.80;1.00;;;;;;8182686;28;20207;-63
2024/01/17 20:40:22;;;;;;;117.00;63.13;;;0.80;1.00;;;;;;8169353;28;20228;-66
2024/01/17 20:44:23;;;;;;;83.47;50.23;;;0.80;1.00;;;;;;8178653;28;20204;-65